createdAt,value
2017-02-14T00:00:34.308Z,99.99
2017-02-14T00:01:34.274Z,99.99
2017-02-14T00:02:34.244Z,99.99
2017-02-14T00:03:34.225Z,99.99
2017-02-14T00:04:34.220Z,99.99
2017-02-14T00:05:34.177Z,99.99
2017-02-14T00:06:34.160Z,99.99
2017-02-14T00:07:34.138Z,99.99
2017-02-14T00:08:34.110Z,99.99
2017-02-14T00:09:34.100Z,99.99
2017-02-14T00:10:34.068Z,99.99
2017-02-14T00:11:34.047Z,99.99
2017-02-14T00:12:34.084Z,99.99
2017-02-14T00:13:34.008Z,99.99
2017-02-14T00:14:33.982Z,99.99
2017-02-14T00:15:33.958Z,99.99
2017-02-14T00:16:33.937Z,99.99
2017-02-14T00:17:33.910Z,99.99
2017-02-14T00:18:33.898Z,99.99
2017-02-14T00:19:33.864Z,99.99
2017-02-14T00:20:33.842Z,99.99
2017-02-14T00:21:33.816Z,99.99
2017-02-14T00:22:33.403Z,99.99
2017-02-14T00:23:33.780Z,99.99
2017-02-14T00:24:33.764Z,99.99
2017-02-14T00:25:33.729Z,99.99
2017-02-14T00:26:33.905Z,99.99
2017-02-14T00:27:33.685Z,99.99
2017-02-14T00:28:33.664Z,99.99
2017-02-14T00:29:33.642Z,99.99
2017-02-14T00:30:33.627Z,99.99
2017-02-14T00:31:33.597Z,99.99
2017-02-14T00:32:33.570Z,99.99
2017-02-14T00:33:33.548Z,99.99
2017-02-14T00:34:33.523Z,99.99
2017-02-14T00:35:33.521Z,99.99
2017-02-14T00:36:33.477Z,99.99
2017-02-14T00:37:33.462Z,99.99
2017-02-14T00:38:33.446Z,99.99
2017-02-14T00:39:33.413Z,99.99
2017-02-14T00:40:33.387Z,99.99
2017-02-14T00:41:32.978Z,99.99
2017-02-14T00:42:32.972Z,99.99
2017-02-14T00:43:33.322Z,99.99
2017-02-14T00:44:33.301Z,99.99
2017-02-14T00:45:33.278Z,99.99
2017-02-14T00:46:33.253Z,99.99
2017-02-14T00:47:33.233Z,99.99
2017-02-14T00:48:33.206Z,99.99
2017-02-14T00:49:33.198Z,99.99
2017-02-14T00:50:33.163Z,99.99
2017-02-14T00:51:33.145Z,99.99
2017-02-14T00:52:33.125Z,99.99
2017-02-14T00:53:33.095Z,99.99
2017-02-14T00:54:33.085Z,99.99
2017-02-14T00:55:33.051Z,99.99
2017-02-14T00:56:33.028Z,99.99
2017-02-14T00:57:33.002Z,99.99
2017-02-14T00:58:32.979Z,99.99
2017-02-14T00:59:33.008Z,99.99
2017-02-14T01:00:32.935Z,99.99
2017-02-14T01:01:32.910Z,99.99
2017-02-14T01:02:32.901Z,99.99
2017-02-14T01:03:32.886Z,99.99
2017-02-14T01:04:32.845Z,99.99
2017-02-14T01:05:32.826Z,99.99
2017-02-14T01:06:32.800Z,99.99
2017-02-14T01:07:32.777Z,99.99
2017-02-14T01:08:32.756Z,99.99
2017-02-14T01:09:32.732Z,99.99
2017-02-14T01:10:32.715Z,99.99
2017-02-14T01:11:32.685Z,99.99
2017-02-14T01:12:32.669Z,99.99
2017-02-14T01:13:32.643Z,99.99
2017-02-14T01:14:32.616Z,99.99
2017-02-14T01:15:32.599Z,99.99
2017-02-14T01:16:32.577Z,99.99
2017-02-14T01:17:32.550Z,99.99
2017-02-14T01:18:32.530Z,99.99
2017-02-14T01:19:32.504Z,99.99
2017-02-14T01:20:32.479Z,99.99
2017-02-14T01:21:32.465Z,99.99
2017-02-14T01:22:32.436Z,99.99
2017-02-14T01:23:32.410Z,99.99
2017-02-14T01:24:32.450Z,99.99
2017-02-14T01:25:32.388Z,99.99
2017-02-14T01:26:32.346Z,99.99
2017-02-14T01:27:32.326Z,99.99
2017-02-14T01:28:32.309Z,99.99
2017-02-14T01:29:32.275Z,99.99
2017-02-14T01:30:32.262Z,99.99
2017-02-14T01:31:32.233Z,99.99
2017-02-14T01:32:32.217Z,99.99
2017-02-14T01:33:32.186Z,99.99
2017-02-14T01:34:32.162Z,99.99
2017-02-14T01:35:32.152Z,99.99
2017-02-14T01:36:32.120Z,99.99
2017-02-14T01:37:32.101Z,99.99
2017-02-14T01:38:32.070Z,99.99
2017-02-14T01:39:32.071Z,99.99
2017-02-14T01:40:32.031Z,99.99
2017-02-14T01:41:32.031Z,99.99
2017-02-14T01:42:31.980Z,99.99
2017-02-14T01:43:31.968Z,99.99
2017-02-14T01:44:31.943Z,99.99
2017-02-14T01:45:31.912Z,99.99
2017-02-14T01:46:31.889Z,99.99
2017-02-14T01:47:31.878Z,99.99
2017-02-14T01:48:31.845Z,99.99
2017-02-14T01:49:31.821Z,99.99
2017-02-14T01:50:31.800Z,99.99
2017-02-14T01:51:31.775Z,99.99
2017-02-14T01:52:31.759Z,99.99
2017-02-14T01:53:31.732Z,99.99
2017-02-14T01:54:31.707Z,99.99
2017-02-14T01:55:31.691Z,99.99
2017-02-14T01:56:31.669Z,99.99
2017-02-14T01:57:31.653Z,99.99
2017-02-14T01:58:31.617Z,99.99
2017-02-14T01:59:31.594Z,99.99
2017-02-14T02:00:31.586Z,99.99
2017-02-14T02:01:31.596Z,99.99
2017-02-14T02:02:31.526Z,99.99
2017-02-14T02:03:31.504Z,99.99
2017-02-14T02:04:31.480Z,99.99
2017-02-14T02:05:31.458Z,99.99
2017-02-14T02:06:31.040Z,99.99
2017-02-14T02:07:31.436Z,99.99
2017-02-14T02:08:31.422Z,99.99
2017-02-14T02:09:31.375Z,99.99
2017-02-14T02:10:31.361Z,99.99
2017-02-14T02:11:31.320Z,99.99
2017-02-14T02:12:31.302Z,99.99
2017-02-14T02:13:31.286Z,99.99
2017-02-14T02:14:31.251Z,99.99
2017-02-14T02:15:31.243Z,99.99
2017-02-14T02:16:31.207Z,99.99
2017-02-14T02:17:31.186Z,99.99
2017-02-14T02:18:31.162Z,99.99
2017-02-14T02:19:31.139Z,99.99
2017-02-14T02:20:31.113Z,99.99
2017-02-14T02:21:31.090Z,99.99
2017-02-14T02:22:31.073Z,99.99
2017-02-14T02:23:31.047Z,99.99
2017-02-14T02:24:31.024Z,99.99
2017-02-14T02:25:31.002Z,99.99
2017-02-14T02:26:31.206Z,99.99
2017-02-14T02:27:30.955Z,99.99
2017-02-14T02:28:30.933Z,99.99
2017-02-14T02:29:30.914Z,99.99
2017-02-14T02:30:30.895Z,99.99
2017-02-14T02:31:30.871Z,99.99
2017-02-14T02:32:30.858Z,99.99
2017-02-14T02:33:30.818Z,99.99
2017-02-14T02:34:30.400Z,99.99
2017-02-14T02:35:30.775Z,99.99
2017-02-14T02:36:30.746Z,99.99
2017-02-14T02:37:30.728Z,99.99
2017-02-14T02:38:30.704Z,99.99
2017-02-14T02:39:30.681Z,99.99
2017-02-14T02:40:30.670Z,99.99
2017-02-14T02:41:30.635Z,99.99
2017-02-14T02:42:30.673Z,99.99
2017-02-14T02:43:30.593Z,99.99
2017-02-14T02:44:30.568Z,99.99
2017-02-14T02:45:30.542Z,99.99
2017-02-14T02:46:30.523Z,99.99
2017-02-14T02:47:30.100Z,99.99
2017-02-14T02:48:30.475Z,99.99
2017-02-14T02:49:30.493Z,99.99
2017-02-14T02:50:30.440Z,99.99
2017-02-14T02:51:30.415Z,99.99
2017-02-14T02:52:30.385Z,99.99
2017-02-14T02:53:30.375Z,99.99
2017-02-14T02:54:29.947Z,99.99
2017-02-14T02:55:30.322Z,99.99
2017-02-14T02:56:30.290Z,99.99
2017-02-14T02:57:30.276Z,99.99
2017-02-14T02:58:30.245Z,99.99
2017-02-14T02:59:30.220Z,99.99
2017-02-14T03:00:30.200Z,99.99
2017-02-14T03:01:30.175Z,99.99
2017-02-14T03:02:30.157Z,99.99
2017-02-14T03:03:30.133Z,99.99
2017-02-14T03:04:30.118Z,99.99
2017-02-14T03:05:30.088Z,99.99
2017-02-14T03:06:30.064Z,99.99
2017-02-14T03:07:29.644Z,99.99
2017-02-14T03:08:30.019Z,99.99
2017-02-14T03:09:29.998Z,99.99
2017-02-14T03:10:29.982Z,99.99
2017-02-14T03:11:29.952Z,99.99
2017-02-14T03:12:29.925Z,99.99
2017-02-14T03:13:29.904Z,99.99
2017-02-14T03:14:29.876Z,99.99
2017-02-14T03:15:29.887Z,99.99
2017-02-14T03:16:29.842Z,99.99
2017-02-14T03:17:29.805Z,99.99
2017-02-14T03:18:29.786Z,99.99
2017-02-14T03:19:29.775Z,99.99
2017-02-14T03:20:29.756Z,99.99
2017-02-14T03:21:29.715Z,99.99
2017-02-14T03:22:29.687Z,99.99
2017-02-14T03:23:29.666Z,99.99
2017-02-14T03:24:29.660Z,99.99
2017-02-14T03:25:29.642Z,99.99
2017-02-14T03:26:29.599Z,99.99
2017-02-14T03:27:29.580Z,99.99
2017-02-14T03:28:29.558Z,99.99
2017-02-14T03:29:29.524Z,99.99
2017-02-14T03:30:29.510Z,99.99
2017-02-14T03:31:29.096Z,99.99
2017-02-14T03:32:29.466Z,99.99
2017-02-14T03:33:29.044Z,99.99
2017-02-14T03:34:29.412Z,99.99
2017-02-14T03:35:29.391Z,99.99
2017-02-14T03:36:29.370Z,99.99
2017-02-14T03:37:28.950Z,99.99
2017-02-14T03:38:29.327Z,99.99
2017-02-14T03:39:28.905Z,99.99
2017-02-14T03:40:29.286Z,99.99
2017-02-14T03:41:29.252Z,99.99
2017-02-14T03:42:29.229Z,99.99
2017-02-14T03:43:29.203Z,99.99
2017-02-14T03:44:29.193Z,99.99
2017-02-14T03:45:29.181Z,99.99
2017-02-14T03:46:29.159Z,99.99
2017-02-14T03:47:29.115Z,99.99
2017-02-14T03:48:29.093Z,99.99
2017-02-14T03:49:29.066Z,99.99
2017-02-14T03:50:29.047Z,99.99
2017-02-14T03:51:29.022Z,99.99
2017-02-14T03:52:28.997Z,99.99
2017-02-14T03:53:28.980Z,99.99
2017-02-14T03:54:28.949Z,99.99
2017-02-14T03:55:28.930Z,99.99
2017-02-14T03:56:28.912Z,99.99
2017-02-14T03:57:28.884Z,99.99
2017-02-14T03:58:28.869Z,99.99
2017-02-14T03:59:28.842Z,99.99
2017-02-14T04:00:28.811Z,99.99
2017-02-14T04:01:28.790Z,99.99
2017-02-14T04:02:28.763Z,99.99
2017-02-14T04:03:28.752Z,99.99
2017-02-14T04:04:28.715Z,99.99
2017-02-14T04:05:28.694Z,99.99
2017-02-14T04:06:28.672Z,99.99
2017-02-14T04:07:28.650Z,99.99
2017-02-14T04:08:28.648Z,99.99
2017-02-14T04:09:28.607Z,99.99
2017-02-14T04:10:28.590Z,99.99
2017-02-14T04:11:28.562Z,99.99
2017-02-14T04:12:28.542Z,99.99
2017-02-14T04:13:28.529Z,99.99
2017-02-14T04:14:28.486Z,99.99
2017-02-14T04:15:28.460Z,99.99
2017-02-14T04:16:28.451Z,99.99
2017-02-14T04:17:28.024Z,99.99
2017-02-14T04:18:28.395Z,99.99
2017-02-14T04:19:28.388Z,99.99
2017-02-14T04:20:28.358Z,99.99
2017-02-14T04:21:28.322Z,99.99
2017-02-14T04:22:28.307Z,99.99
2017-02-14T04:23:27.885Z,99.99
2017-02-14T04:24:28.268Z,99.99
2017-02-14T04:25:28.231Z,99.99
2017-02-14T04:26:28.022Z,99.99
2017-02-14T04:27:28.206Z,99.99
2017-02-14T04:28:27.765Z,99.99
2017-02-14T04:29:28.137Z,99.99
2017-02-14T04:30:28.125Z,99.99
2017-02-14T04:31:28.098Z,99.99
2017-02-14T04:32:28.072Z,99.99
2017-02-14T04:33:28.047Z,99.99
2017-02-14T04:34:28.021Z,99.99
2017-02-14T04:35:28.010Z,99.99
2017-02-14T04:36:27.978Z,99.99
2017-02-14T04:37:27.959Z,99.99
2017-02-14T04:38:27.927Z,99.99
2017-02-14T04:39:27.903Z,99.99
2017-02-14T04:40:27.879Z,99.99
2017-02-14T04:41:27.864Z,99.99
2017-02-14T04:42:27.838Z,99.99
2017-02-14T04:43:28.137Z,99.99
2017-02-14T04:44:27.792Z,99.99
2017-02-14T04:45:27.761Z,99.99
2017-02-14T04:46:27.738Z,99.99
2017-02-14T04:47:27.718Z,99.99
2017-02-14T04:48:27.691Z,99.99
2017-02-14T04:49:27.672Z,99.99
2017-02-14T04:50:27.644Z,99.99
2017-02-14T04:51:27.623Z,99.99
2017-02-14T04:52:27.598Z,99.99
2017-02-14T04:53:27.575Z,99.99
2017-02-14T04:54:27.157Z,99.99
2017-02-14T04:55:27.537Z,99.99
2017-02-14T04:56:27.505Z,99.99
2017-02-14T04:57:27.490Z,99.99
2017-02-14T04:58:27.473Z,99.99
2017-02-14T04:59:27.439Z,99.99
2017-02-14T05:00:27.420Z,99.99
2017-02-14T05:01:27.387Z,99.99
2017-02-14T05:02:27.382Z,99.99
2017-02-14T05:03:26.943Z,99.99
2017-02-14T05:04:27.321Z,99.99
2017-02-14T05:05:27.297Z,99.99
2017-02-14T05:06:27.270Z,99.99
2017-02-14T05:07:26.856Z,99.99
2017-02-14T05:08:27.228Z,99.99
2017-02-14T05:09:27.205Z,99.99
2017-02-14T05:10:27.177Z,99.99
2017-02-14T05:11:27.156Z,99.99
2017-02-14T05:12:27.142Z,99.99
2017-02-14T05:13:27.112Z,99.99
2017-02-14T05:14:27.082Z,99.99
2017-02-14T05:15:27.058Z,99.99
2017-02-14T05:16:26.640Z,99.99
2017-02-14T05:17:27.010Z,99.99
2017-02-14T05:18:26.999Z,99.99
2017-02-14T05:19:26.983Z,99.99
2017-02-14T05:20:26.952Z,99.99
2017-02-14T05:21:26.919Z,99.99
2017-02-14T05:22:26.902Z,99.99
2017-02-14T05:23:26.878Z,99.99
2017-02-14T05:24:26.866Z,99.99
2017-02-14T05:25:26.828Z,99.99
2017-02-14T05:26:26.803Z,99.99
2017-02-14T05:27:26.789Z,99.99
2017-02-14T05:28:26.754Z,99.99
2017-02-14T05:29:26.740Z,99.99
2017-02-14T05:30:26.707Z,99.99
2017-02-14T05:31:26.693Z,99.99
2017-02-14T05:32:26.658Z,99.99
2017-02-14T05:33:26.647Z,99.99
2017-02-14T05:34:26.610Z,99.99
2017-02-14T05:35:26.587Z,99.99
2017-02-14T05:36:26.574Z,99.99
2017-02-14T05:37:26.541Z,99.99
2017-02-14T05:38:26.521Z,99.99
2017-02-14T05:39:26.505Z,99.99
2017-02-14T05:40:26.468Z,99.99
2017-02-14T05:41:26.450Z,99.99
2017-02-14T05:42:26.448Z,99.99
2017-02-14T05:43:26.406Z,99.99
2017-02-14T05:44:26.389Z,99.99
2017-02-14T05:45:26.352Z,99.99
2017-02-14T05:46:26.327Z,99.99
2017-02-14T05:47:26.302Z,99.99
2017-02-14T05:48:26.300Z,99.99
2017-02-14T05:49:26.257Z,99.99
2017-02-14T05:50:26.232Z,99.99
2017-02-14T05:51:26.210Z,99.99
2017-02-14T05:52:26.186Z,99.99
2017-02-14T05:53:26.161Z,99.99
2017-02-14T05:54:26.138Z,99.99
2017-02-14T05:55:26.115Z,99.99
2017-02-14T05:56:26.093Z,99.99
2017-02-14T05:57:26.078Z,99.99
2017-02-14T05:58:25.651Z,99.99
2017-02-14T05:59:26.020Z,99.99
2017-02-14T06:00:26.010Z,99.99
2017-02-14T06:01:25.972Z,99.99
2017-02-14T06:02:25.949Z,99.99
2017-02-14T06:03:25.951Z,99.99
2017-02-14T06:04:25.901Z,99.99
2017-02-14T06:05:25.884Z,99.99
2017-02-14T06:06:25.870Z,99.99
2017-02-14T06:07:25.831Z,99.99
2017-02-14T06:08:25.806Z,99.99
2017-02-14T06:09:25.782Z,99.99
2017-02-14T06:10:25.760Z,99.99
2017-02-14T06:11:25.735Z,99.99
2017-02-14T06:12:25.712Z,99.99
2017-02-14T06:13:25.692Z,99.99
2017-02-14T06:14:25.674Z,99.99
2017-02-14T06:15:25.643Z,99.99
2017-02-14T06:16:25.618Z,99.99
2017-02-14T06:17:25.596Z,99.99
2017-02-14T06:18:25.567Z,99.99
2017-02-14T06:19:25.544Z,99.99
2017-02-14T06:20:25.523Z,99.99
2017-02-14T06:21:25.525Z,99.99
2017-02-14T06:22:25.476Z,99.99
2017-02-14T06:23:25.455Z,99.99
2017-02-14T06:24:25.029Z,99.99
2017-02-14T06:25:25.404Z,99.99
2017-02-14T06:26:25.394Z,99.99
2017-02-14T06:27:25.359Z,99.99
2017-02-14T06:28:25.347Z,99.99
2017-02-14T06:29:25.310Z,99.99
2017-02-14T06:30:25.299Z,99.99
2017-02-14T06:31:25.263Z,99.99
2017-02-14T06:32:25.279Z,99.99
2017-02-14T06:33:25.215Z,99.99
2017-02-14T06:34:25.195Z,99.99
2017-02-14T06:35:25.186Z,99.99
2017-02-14T06:36:25.145Z,99.99
2017-02-14T06:37:25.129Z,99.99
2017-02-14T06:38:25.097Z,99.99
2017-02-14T06:39:25.074Z,99.99
2017-02-14T06:40:25.058Z,99.99
2017-02-14T06:41:25.026Z,99.99
2017-02-14T06:42:25.019Z,99.99
2017-02-14T06:43:24.977Z,99.99
2017-02-14T06:44:24.967Z,99.99
2017-02-14T06:45:24.930Z,99.99
2017-02-14T06:46:24.906Z,99.99
2017-02-14T06:47:24.890Z,99.99
2017-02-14T06:48:24.858Z,99.99
2017-02-14T06:49:24.840Z,99.99
2017-02-14T06:50:24.817Z,99.99
2017-02-14T06:51:24.790Z,99.99
2017-02-14T06:52:24.763Z,99.99
2017-02-14T06:53:24.739Z,99.99
2017-02-14T06:54:24.726Z,99.99
2017-02-14T06:55:24.703Z,99.99
2017-02-14T06:56:24.673Z,99.99
2017-02-14T06:57:24.647Z,99.99
2017-02-14T06:58:24.630Z,99.99
2017-02-14T06:59:24.602Z,99.99
2017-02-14T07:00:24.574Z,99.99
2017-02-14T07:01:24.556Z,99.99
2017-02-14T07:02:24.530Z,99.99
2017-02-14T07:03:24.517Z,99.99
2017-02-14T07:04:24.483Z,99.99
2017-02-14T07:05:24.464Z,99.99
2017-02-14T07:06:24.437Z,99.99
2017-02-14T07:07:24.408Z,99.99
2017-02-14T07:08:24.387Z,99.99
2017-02-14T07:09:24.367Z,99.99
2017-02-14T07:10:24.342Z,99.99
2017-02-14T07:11:24.320Z,99.99
2017-02-14T07:12:24.298Z,99.99
2017-02-14T07:13:23.871Z,99.99
2017-02-14T07:14:24.245Z,99.99
2017-02-14T07:15:24.228Z,99.99
2017-02-14T07:16:24.200Z,99.99
2017-02-14T07:17:24.170Z,99.99
2017-02-14T07:18:24.148Z,99.99
2017-02-14T07:19:24.126Z,99.99
2017-02-14T07:20:23.707Z,99.99
2017-02-14T07:21:24.079Z,99.99
2017-02-14T07:22:24.055Z,99.99
2017-02-14T07:23:24.066Z,99.99
2017-02-14T07:24:24.007Z,99.99
2017-02-14T07:25:23.981Z,99.99
2017-02-14T07:26:24.001Z,99.99
2017-02-14T07:27:23.936Z,99.99
2017-02-14T07:28:23.919Z,99.99
2017-02-14T07:29:23.891Z,99.99
2017-02-14T07:30:23.883Z,99.99
2017-02-14T07:31:23.844Z,99.99
2017-02-14T07:32:23.820Z,99.99
2017-02-14T07:33:23.798Z,99.99
2017-02-14T07:34:23.775Z,99.99
2017-02-14T07:35:23.766Z,99.99
2017-02-14T07:36:23.732Z,99.99
2017-02-14T07:37:23.707Z,99.99
2017-02-14T07:38:23.706Z,99.99
2017-02-14T07:39:23.669Z,99.99
2017-02-14T07:40:23.636Z,99.99
2017-02-14T07:41:23.615Z,99.99
2017-02-14T07:42:23.610Z,99.99
2017-02-14T07:43:23.581Z,99.99
2017-02-14T07:44:23.544Z,99.99
2017-02-14T07:45:23.547Z,99.99
2017-02-14T07:46:23.100Z,99.99
2017-02-14T07:47:23.471Z,99.99
2017-02-14T07:48:23.456Z,99.99
2017-02-14T07:49:23.428Z,99.99
2017-02-14T07:50:23.406Z,99.99
2017-02-14T07:51:23.405Z,99.99
2017-02-14T07:52:23.361Z,99.99
2017-02-14T07:53:23.337Z,99.99
2017-02-14T07:54:23.314Z,99.99
2017-02-14T07:55:23.289Z,99.99
2017-02-14T07:56:23.268Z,99.99
2017-02-14T07:57:23.242Z,99.99
2017-02-14T07:58:23.216Z,99.99
2017-02-14T07:59:23.201Z,99.99
2017-02-14T08:00:23.173Z,99.99
2017-02-14T08:01:23.164Z,99.99
2017-02-14T08:02:23.124Z,99.99
2017-02-14T08:03:23.126Z,99.99
2017-02-14T08:04:23.088Z,99.99
2017-02-14T08:05:22.657Z,99.99
2017-02-14T08:06:23.037Z,99.99
2017-02-14T08:07:23.016Z,99.99
2017-02-14T08:08:22.997Z,99.99
2017-02-14T08:09:22.566Z,99.99
2017-02-14T08:10:22.946Z,99.99
2017-02-14T08:11:22.921Z,99.99
2017-02-14T08:12:22.902Z,99.99
2017-02-14T08:13:22.897Z,99.99
2017-02-14T08:14:22.851Z,99.99
2017-02-14T08:15:22.826Z,99.99
2017-02-14T08:16:22.800Z,99.99
2017-02-14T08:17:22.788Z,99.99
2017-02-14T08:18:22.760Z,99.99
2017-02-14T08:19:22.749Z,99.99
2017-02-14T08:20:22.735Z,99.99
2017-02-14T08:21:22.693Z,99.99
2017-02-14T08:22:22.673Z,99.99
2017-02-14T08:23:22.252Z,99.99
2017-02-14T08:24:22.649Z,99.99
2017-02-14T08:25:22.603Z,99.99
2017-02-14T08:26:22.589Z,99.99
2017-02-14T08:27:22.569Z,99.99
2017-02-14T08:28:22.547Z,99.99
2017-02-14T08:29:22.525Z,99.99
2017-02-14T08:30:22.493Z,99.99
2017-02-14T08:31:22.477Z,99.99
2017-02-14T08:32:22.457Z,99.99
2017-02-14T08:33:22.439Z,99.99
2017-02-14T08:34:22.408Z,99.99
2017-02-14T08:35:22.435Z,99.99
2017-02-14T08:36:22.364Z,99.99
2017-02-14T08:37:22.346Z,99.99
2017-02-14T08:38:22.318Z,99.99
2017-02-14T08:39:22.293Z,99.99
2017-02-14T08:40:22.276Z,99.99
2017-02-14T08:41:22.253Z,99.99
2017-02-14T08:42:22.231Z,99.99
2017-02-14T08:43:22.218Z,99.99
2017-02-14T08:44:22.191Z,99.99
2017-02-14T08:45:22.171Z,99.99
2017-02-14T08:46:22.160Z,99.99
2017-02-14T08:47:22.147Z,99.99
2017-02-14T08:48:22.113Z,99.99
2017-02-14T08:49:22.089Z,99.99
2017-02-14T08:50:22.074Z,99.99
2017-02-14T08:51:22.047Z,98.11
2017-02-14T08:52:22.030Z,95.03
2017-02-14T08:53:22.010Z,94.32
2017-02-14T08:54:21.992Z,93.23
2017-02-14T08:55:21.986Z,94.84
2017-02-14T08:56:21.966Z,95.6
2017-02-14T08:57:21.933Z,94.08
2017-02-14T08:58:21.912Z,93.51
2017-02-14T08:59:21.893Z,95.22
2017-02-14T09:00:21.876Z,95.55
2017-02-14T09:01:21.867Z,96.97
2017-02-14T09:02:21.839Z,98.59
2017-02-14T09:03:21.823Z,97.55
2017-02-14T09:04:21.803Z,93.94
2017-02-14T09:05:21.778Z,91.04
2017-02-14T09:06:21.770Z,87.47
2017-02-14T09:07:21.760Z,84.95
2017-02-14T09:08:21.731Z,82.67
2017-02-14T09:09:21.719Z,81.47
2017-02-14T09:10:21.698Z,80.9
2017-02-14T09:11:21.700Z,79.7
2017-02-14T09:12:21.691Z,79.32
2017-02-14T09:13:21.651Z,76.03
2017-02-14T09:14:21.644Z,72.88
2017-02-14T09:15:21.620Z,73.45
2017-02-14T09:16:21.609Z,74.4
2017-02-14T09:17:21.590Z,73.36
2017-02-14T09:18:21.574Z,72.41
2017-02-14T09:19:21.561Z,71.26
2017-02-14T09:20:21.547Z,71.83
2017-02-14T09:21:21.146Z,73.89
2017-02-14T09:22:21.526Z,74.18
2017-02-14T09:23:21.505Z,74.18
2017-02-14T09:24:21.493Z,73.51
2017-02-14T09:25:21.084Z,72.46
2017-02-14T09:26:21.457Z,73.32
2017-02-14T09:27:21.455Z,74.27
2017-02-14T09:28:21.431Z,74.08
2017-02-14T09:29:21.423Z,73.19
2017-02-14T09:30:21.401Z,74.33
2017-02-14T09:31:21.389Z,75.38
2017-02-14T09:32:21.379Z,73.85
2017-02-14T09:33:21.371Z,73.57
2017-02-14T09:34:20.953Z,74.33
2017-02-14T09:35:21.339Z,74.71
2017-02-14T09:36:21.331Z,74.8
2017-02-14T09:37:21.311Z,74.43
2017-02-14T09:38:21.295Z,73.19
2017-02-14T09:39:21.321Z,72.27
2017-02-14T09:40:21.271Z,72.42
2017-02-14T09:41:21.260Z,72.81
2017-02-14T09:42:21.254Z,73
2017-02-14T09:43:20.841Z,73.91
2017-02-14T09:44:21.240Z,75.24
2017-02-14T09:45:21.218Z,75.3
2017-02-14T09:46:21.192Z,76.06
2017-02-14T09:47:21.181Z,76.92
2017-02-14T09:48:20.774Z,78.06
2017-02-14T09:49:21.151Z,77.05
2017-02-14T09:50:21.143Z,75.24
2017-02-14T09:51:21.131Z,73.1
2017-02-14T09:52:21.115Z,73.57
2017-02-14T09:53:20.705Z,71.32
2017-02-14T09:54:21.089Z,71.86
2017-02-14T09:55:21.078Z,72.71
2017-02-14T09:56:21.079Z,73.19
2017-02-14T09:57:21.055Z,73.19
2017-02-14T09:58:21.120Z,74.04
2017-02-14T09:59:21.026Z,73.47
2017-02-14T10:00:21.016Z,72.27
2017-02-14T10:01:21.005Z,72.56
2017-02-14T10:02:20.988Z,71.22
2017-02-14T10:03:20.984Z,70.94
2017-02-14T10:04:20.964Z,72.24
2017-02-14T10:05:20.965Z,73.28
2017-02-14T10:06:20.948Z,74.04
2017-02-14T10:07:20.925Z,74.04
2017-02-14T10:08:20.919Z,74.52
2017-02-14T10:09:20.899Z,74.8
2017-02-14T10:10:20.886Z,73.38
2017-02-14T10:11:20.874Z,73.61
2017-02-14T10:12:20.886Z,73.22
2017-02-14T10:13:20.846Z,71.7
2017-02-14T10:14:20.839Z,70.08
2017-02-14T10:15:20.826Z,69.76
2017-02-14T10:16:20.825Z,71.32
2017-02-14T10:17:20.810Z,72.42
2017-02-14T10:18:20.791Z,73
2017-02-14T10:19:20.790Z,73.1
2017-02-14T10:20:20.769Z,73.85
2017-02-14T10:21:20.761Z,72.9
2017-02-14T10:22:20.744Z,73.38
2017-02-14T10:23:20.729Z,74.14
2017-02-14T10:24:20.721Z,74.04
2017-02-14T10:25:20.323Z,73.19
2017-02-14T10:26:20.697Z,71.98
2017-02-14T10:27:20.889Z,69.83
2017-02-14T10:28:20.678Z,69.87
2017-02-14T10:29:20.660Z,69.2
2017-02-14T10:30:20.651Z,69.43
2017-02-14T10:31:20.765Z,67.33
2017-02-14T10:32:20.634Z,67.14
2017-02-14T10:33:20.620Z,65.64
2017-02-14T10:34:20.610Z,66.18
2017-02-14T10:35:20.601Z,65.45
2017-02-14T10:36:20.586Z,64.5
2017-02-14T10:37:20.581Z,65.07
2017-02-14T10:38:20.579Z,64.72
2017-02-14T10:39:20.559Z,64.25
2017-02-14T10:40:20.144Z,63.67
2017-02-14T10:41:20.534Z,63.1
2017-02-14T10:42:20.520Z,63.32
2017-02-14T10:43:20.524Z,63.13
2017-02-14T10:44:20.500Z,63.8
2017-02-14T10:45:20.486Z,63.03
2017-02-14T10:46:20.476Z,62.27
2017-02-14T10:47:20.470Z,62.18
2017-02-14T10:48:20.468Z,62.34
2017-02-14T10:49:20.463Z,63.1
2017-02-14T10:50:20.442Z,63.57
2017-02-14T10:51:20.429Z,63.48
2017-02-14T10:52:20.416Z,62.71
2017-02-14T10:53:20.400Z,64.05
2017-02-14T10:54:20.392Z,62.88
2017-02-14T10:55:20.403Z,63.23
2017-02-14T10:56:20.379Z,64.56
2017-02-14T10:57:20.357Z,65.33
2017-02-14T10:58:20.356Z,66.53
2017-02-14T10:59:19.946Z,67.29
2017-02-14T11:00:20.323Z,68.24
2017-02-14T11:01:19.917Z,67.8
2017-02-14T11:02:20.305Z,66.38
2017-02-14T11:03:20.309Z,66.09
2017-02-14T11:04:20.283Z,65.26
2017-02-14T11:05:20.274Z,65.26
2017-02-14T11:06:20.259Z,65.17
2017-02-14T11:07:20.259Z,64.59
2017-02-14T11:08:20.249Z,64.31
2017-02-14T11:09:20.234Z,64.21
2017-02-14T11:10:19.829Z,63.92
2017-02-14T11:11:20.221Z,64.5
2017-02-14T11:12:20.205Z,64.15
2017-02-14T11:13:19.797Z,63.03
2017-02-14T11:14:20.188Z,61.51
2017-02-14T11:15:20.172Z,59.81
2017-02-14T11:16:20.218Z,59.81
2017-02-14T11:17:20.167Z,59.34
2017-02-14T11:18:20.145Z,59.72
2017-02-14T11:19:20.163Z,58.89
2017-02-14T11:20:20.132Z,55.83
2017-02-14T11:21:19.728Z,57.75
2017-02-14T11:22:20.147Z,58.12
2017-02-14T11:23:20.144Z,58.8
2017-02-14T11:24:20.106Z,59.56
2017-02-14T11:25:20.106Z,58.7
2017-02-14T11:26:20.085Z,57.68
2017-02-14T11:27:20.086Z,56.82
2017-02-14T11:28:20.084Z,56.43
2017-02-14T11:29:20.078Z,57.1
2017-02-14T11:30:20.072Z,57.58
2017-02-14T11:31:20.061Z,58.25
2017-02-14T11:32:20.048Z,57.04
2017-02-14T11:33:19.674Z,57.32
2017-02-14T11:34:20.036Z,58.37
2017-02-14T11:35:20.046Z,57.58
2017-02-14T11:36:19.642Z,58.34
2017-02-14T11:37:20.019Z,58.8
2017-02-14T11:38:20.011Z,57.46
2017-02-14T11:39:20.005Z,57.46
2017-02-14T11:40:20.013Z,57.93
2017-02-14T11:41:19.994Z,57.17
2017-02-14T11:42:19.984Z,55.83
2017-02-14T11:43:19.585Z,56.5
2017-02-14T11:44:19.973Z,56.15
2017-02-14T11:45:19.967Z,55.96
2017-02-14T11:46:19.974Z,56.62
2017-02-14T11:47:19.561Z,55.22
2017-02-14T11:48:19.954Z,54.93
2017-02-14T11:49:19.945Z,54.45
2017-02-14T11:50:19.940Z,55.02
2017-02-14T11:51:19.939Z,55.73
2017-02-14T11:52:19.935Z,54.19
2017-02-14T11:53:19.934Z,54.32
2017-02-14T11:54:19.929Z,54.03
2017-02-14T11:55:19.919Z,53.16
2017-02-14T11:56:19.918Z,53.19
2017-02-14T11:57:19.918Z,53.26
2017-02-14T11:58:19.911Z,53.26
2017-02-14T11:59:19.908Z,51.63
2017-02-14T12:00:19.903Z,52.69
2017-02-14T12:01:19.908Z,51.08
2017-02-14T12:02:19.897Z,51.85
2017-02-14T12:03:19.910Z,52.81
2017-02-14T12:04:19.891Z,51.75
2017-02-14T12:05:19.891Z,50.7
2017-02-14T12:06:19.887Z,50.99
2017-02-14T12:07:19.895Z,50.89
2017-02-14T12:08:19.493Z,51.08
2017-02-14T12:09:19.879Z,51.54
2017-02-14T12:10:19.888Z,53.16
2017-02-14T12:11:19.496Z,54.05
2017-02-14T12:12:19.868Z,52.62
2017-02-14T12:13:19.873Z,51.97
2017-02-14T12:14:19.874Z,50.63
2017-02-14T12:15:19.876Z,51.9
2017-02-14T12:16:19.868Z,50.37
2017-02-14T12:17:19.867Z,49.31
2017-02-14T12:18:19.880Z,49.41
2017-02-14T12:19:19.876Z,49.12
2017-02-14T12:20:19.864Z,49.21
2017-02-14T12:21:19.858Z,48.74
2017-02-14T12:22:19.865Z,50.08
2017-02-14T12:23:19.869Z,49.05
2017-02-14T12:24:19.857Z,49.52
2017-02-14T12:25:19.865Z,49.33
2017-02-14T12:26:19.854Z,47.25
2017-02-14T12:27:20.068Z,48.02
2017-02-14T12:28:19.862Z,47.44
2017-02-14T12:29:19.847Z,47.92
2017-02-14T12:30:19.858Z,47.08
2017-02-14T12:31:19.847Z,44.68
2017-02-14T12:32:19.454Z,43.93
2017-02-14T12:33:19.846Z,45.18
2017-02-14T12:34:19.848Z,45.85
2017-02-14T12:35:19.852Z,46.33
2017-02-14T12:36:19.848Z,47.17
2017-02-14T12:37:19.845Z,45.47
2017-02-14T12:38:19.841Z,45.37
2017-02-14T12:39:19.851Z,45.68
2017-02-14T12:40:19.844Z,44.91
2017-02-14T12:41:19.844Z,43.28
2017-02-14T12:42:19.851Z,43.74
2017-02-14T12:43:19.846Z,45.47
2017-02-14T12:44:19.843Z,45.08
2017-02-14T12:45:19.843Z,45.78
2017-02-14T12:46:19.452Z,45.59
2017-02-14T12:47:19.850Z,43.01
2017-02-14T12:48:19.869Z,42.99
2017-02-14T12:49:19.853Z,44.34
2017-02-14T12:50:19.847Z,45.97
2017-02-14T12:51:19.849Z,46.06
2017-02-14T12:52:19.853Z,45.61
2017-02-14T12:53:19.853Z,44.17